Time;durP1;ratioP1;P1;durP2;ratioP2;P2;SDS_P1;SDS_P2;PMS_P1;PMS_P2;Temp;Humidity;BMP_temperature;BMP_pressure;BME280_temperature;BME280_humidity;BME280_pressure;Samples;Min_cycle;Max_cycle;Signal;HPM_P1;HPM_P2
2022/11/25 00:01:19;;;;;;;16.17;2.85;;;12.40;99.90;;;;;;4992593;28;20173;-79
2022/11/25 00:03:45;;;;;;;14.93;2.58;;;12.50;99.90;;;;;;4991485;28;20181;-79
2022/11/25 00:06:12;;;;;;;12.57;2.45;;;12.30;99.90;;;;;;4992726;28;20192;-80
2022/11/25 00:08:39;;;;;;;13.30;2.13;;;12.40;99.90;;;;;;4993347;28;20180;-79
2022/11/25 00:11:05;;;;;;;9.35;2.47;;;12.30;99.90;;;;;;4996597;28;20175;-80
2022/11/25 00:13:31;;;;;;;18.35;3.08;;;12.10;99.90;;;;;;4996624;28;20335;-79
2022/11/25 00:16:02;;;;;;;11.68;2.35;;;12.20;99.90;;;;;;4996732;28;20169;-79
2022/11/25 00:18:28;;;;;;;14.90;2.72;;;12.20;99.90;;;;;;4995210;28;20184;-79
2022/11/25 00:20:54;;;;;;;13.43;2.90;;;12.20;99.90;;;;;;4996278;28;20185;-80
2022/11/25 00:23:19;;;;;;;17.50;2.50;;;12.00;99.90;;;;;;4996593;28;20232;-80
2022/11/25 00:25:45;;;;;;;14.52;3.45;;;11.90;99.90;;;;;;5011574;28;20656;-80
2022/11/25 00:28:10;;;;;;;12.50;2.58;;;11.90;99.90;;;;;;4996560;28;20745;-79
2022/11/25 00:30:36;;;;;;;12.10;2.78;;;11.70;99.90;;;;;;4996371;28;20264;-79
2022/11/25 00:33:02;;;;;;;7.15;1.27;;;11.60;99.90;;;;;;4996357;28;20677;-79
2022/11/25 00:35:27;;;;;;;4.55;1.17;;;11.40;99.90;;;;;;4996470;28;20220;-80
2022/11/25 00:37:53;;;;;;;4.28;1.27;;;11.10;99.90;;;;;;4996248;28;20197;-80
2022/11/25 00:40:18;;;;;;;3.15;1.13;;;11.10;99.90;;;;;;4996183;28;20247;-79
2022/11/25 00:45:28;;;;;;;1.63;0.77;;;11.10;99.90;;;;;;4996047;28;20188;-80
2022/11/25 00:47:54;;;;;;;2.35;0.80;;;11.10;99.90;;;;;;4995901;28;20169;-79
2022/11/25 00:50:19;;;;;;;1.77;0.80;;;11.00;99.90;;;;;;4995790;28;20228;-80
2022/11/25 00:52:45;;;;;;;2.55;0.85;;;11.00;99.90;;;;;;4995996;28;20165;-80
2022/11/25 00:55:10;;;;;;;2.63;0.52;;;11.00;99.90;;;;;;4996189;28;20212;-80
2022/11/25 00:57:36;;;;;;;2.70;0.80;;;11.00;99.90;;;;;;4995980;28;20689;-80
2022/11/25 01:00:03;;;;;;;4.07;0.95;;;11.00;99.90;;;;;;4995808;28;20199;-79
2022/11/25 01:02:28;;;;;;;1.17;0.45;;;10.90;99.90;;;;;;4995814;28;20161;-79
2022/11/25 01:04:54;;;;;;;2.83;0.75;;;11.00;99.90;;;;;;4995509;28;20170;-80
2022/11/25 01:07:19;;;;;;;2.38;0.75;;;11.10;99.90;;;;;;4995747;28;20169;-79
2022/11/25 01:09:46;;;;;;;0.88;0.50;;;11.20;99.90;;;;;;4995560;28;20196;-81
2022/11/25 01:12:11;;;;;;;2.63;0.65;;;11.10;99.90;;;;;;5002093;28;20176;-79
2022/11/25 01:14:37;;;;;;;2.47;0.77;;;11.00;99.90;;;;;;5015189;28;20208;-80
2022/11/25 01:17:03;;;;;;;4.40;0.80;;;10.90;99.90;;;;;;5015302;28;20712;-79
2022/11/25 01:19:28;;;;;;;2.15;0.65;;;11.00;99.90;;;;;;5029815;28;20200;-79
2022/11/25 01:21:54;;;;;;;2.75;0.80;;;11.10;99.90;;;;;;5013107;28;20633;-80
2022/11/25 01:24:20;;;;;;;8.32;0.90;;;11.10;99.90;;;;;;5014895;28;20542;-80
2022/11/25 01:26:45;;;;;;;1.67;0.73;;;11.10;99.90;;;;;;5015159;28;20168;-80
2022/11/25 01:29:17;;;;;;;2.25;0.65;;;11.00;99.90;;;;;;5014773;28;20659;-80
2022/11/25 01:31:43;;;;;;;1.65;0.52;;;11.00;99.90;;;;;;5014897;28;20183;-80
2022/11/25 01:34:15;;;;;;;2.10;0.55;;;11.10;99.90;;;;;;5014916;28;20200;-80
2022/11/25 01:36:41;;;;;;;2.67;0.60;;;11.20;99.90;;;;;;5014935;28;20175;-79
2022/11/25 01:39:07;;;;;;;3.17;0.80;;;11.20;99.90;;;;;;5014785;28;20188;-79
2022/11/25 01:41:34;;;;;;;2.20;0.82;;;11.20;99.90;;;;;;5014858;28;20157;-80
2022/11/25 01:44:08;;;;;;;2.50;0.85;;;11.00;99.90;;;;;;5014783;28;20214;-79
2022/11/25 01:46:42;;;;;;;2.65;0.73;;;10.60;99.90;;;;;;5014560;28;20188;-79
2022/11/25 01:49:34;;;;;;;0.50;0.50;;;10.40;99.90;;;;;;5014995;28;20224;-79
2022/11/25 01:52:26;;;;;;;3.95;0.90;;;10.30;99.90;;;;;;5009033;28;20267;-80
2022/11/25 01:55:00;;;;;;;2.53;0.70;;;10.40;99.90;;;;;;5014161;28;20216;-78
2022/11/25 01:57:36;;;;;;;1.05;0.70;;;10.40;99.90;;;;;;5014546;28;20188;-79
2022/11/25 02:00:04;;;;;;;1.45;0.70;;;10.60;99.90;;;;;;5029732;28;20592;-79
2022/11/25 02:02:30;;;;;;;1.58;0.60;;;10.60;99.90;;;;;;5014425;28;20176;-79
2022/11/25 02:04:57;;;;;;;0.75;0.70;;;10.70;99.90;;;;;;5014326;28;20226;-79
2022/11/25 02:07:31;;;;;;;1.70;0.75;;;10.70;99.90;;;;;;5014302;28;20169;-79
2022/11/25 02:09:59;;;;;;;6.47;0.77;;;10.80;99.90;;;;;;5012796;28;20196;-79
2022/11/25 02:12:26;;;;;;;1.85;0.75;;;10.90;99.90;;;;;;5013963;28;20187;-79
2022/11/25 02:14:54;;;;;;;3.42;0.40;;;10.90;99.90;;;;;;5014163;28;20204;-80
2022/11/25 02:17:20;;;;;;;0.57;0.57;;;11.10;99.90;;;;;;5014345;28;20184;-79
2022/11/25 02:20:06;;;;;;;1.67;0.77;;;11.20;99.90;;;;;;5013943;28;20534;-81
2022/11/25 02:22:51;;;;;;;4.43;0.70;;;11.10;99.90;;;;;;5013908;28;20180;-79
2022/11/25 02:25:22;;;;;;;0.80;0.65;;;11.00;99.90;;;;;;5014261;28;20314;-80
2022/11/25 02:27:53;;;;;;;1.52;0.70;;;10.90;99.90;;;;;;5014203;28;20203;-80
2022/11/25 02:30:19;;;;;;;1.27;0.70;;;11.00;99.90;;;;;;5014532;28;20263;-79
2022/11/25 02:32:46;;;;;;;0.50;0.50;;;11.10;99.90;;;;;;5013561;28;20654;-79
2022/11/25 02:35:38;;;;;;;2.30;0.45;;;11.00;99.90;;;;;;5014818;28;20168;-79
2022/11/25 02:38:13;;;;;;;0.85;0.65;;;11.00;99.90;;;;;;5015088;28;20230;-80
2022/11/25 02:40:48;;;;;;;3.55;0.70;;;10.90;99.90;;;;;;5015022;28;20198;-79
2022/11/25 02:43:15;;;;;;;6.82;1.05;;;10.80;99.90;;;;;;5018177;28;20164;-80
2022/11/25 02:46:02;;;;;;;0.65;0.50;;;10.70;99.90;;;;;;5019619;28;20207;-79
2022/11/25 02:48:31;;;;;;;0.85;0.50;;;10.60;99.90;;;;;;5046144;28;20153;-80
2022/11/25 02:50:57;;;;;;;1.80;0.60;;;10.50;99.90;;;;;;5038533;28;20189;-80
2022/11/25 02:53:23;;;;;;;0.95;0.60;;;10.60;99.90;;;;;;5037953;28;20195;-79
2022/11/25 02:55:49;;;;;;;0.82;0.50;;;10.70;99.90;;;;;;5038830;28;20171;-79
2022/11/25 02:58:15;;;;;;;2.40;0.55;;;10.80;99.90;;;;;;5038537;28;20220;-80
2022/11/25 03:00:41;;;;;;;1.73;0.80;;;10.90;99.90;;;;;;5038613;28;20235;-80
2022/11/25 03:03:07;;;;;;;4.55;0.68;;;10.80;99.90;;;;;;5038701;28;20195;-80
2022/11/25 03:05:33;;;;;;;0.70;0.70;;;10.80;99.90;;;;;;5037848;28;20156;-79
2022/11/25 03:07:59;;;;;;;1.70;0.85;;;10.50;99.90;;;;;;5047876;28;20188;-80
2022/11/25 03:10:24;;;;;;;0.65;0.60;;;10.50;99.90;;;;;;5025337;28;20193;-80
2022/11/25 03:12:50;;;;;;;3.50;0.60;;;10.40;99.90;;;;;;5028795;28;20171;-79
2022/11/25 03:15:16;;;;;;;4.85;0.90;;;10.40;99.90;;;;;;5037545;28;20200;-80
2022/11/25 03:17:42;;;;;;;0.80;0.60;;;10.40;99.90;;;;;;5023486;28;20193;-83
2022/11/25 03:20:09;;;;;;;3.78;0.73;;;10.50;99.90;;;;;;5022807;28;20188;-82
2022/11/25 03:22:35;;;;;;;1.58;0.70;;;10.50;99.90;;;;;;5023516;28;20169;-81
2022/11/25 03:25:00;;;;;;;1.25;0.52;;;10.60;99.90;;;;;;5034037;28;20167;-79
2022/11/25 03:27:26;;;;;;;5.70;1.30;;;10.50;99.90;;;;;;5025172;28;20174;-81
2022/11/25 03:29:52;;;;;;;4.15;0.93;;;10.40;99.90;;;;;;5019814;28;20188;-81
2022/11/25 03:32:17;;;;;;;4.03;0.80;;;10.30;99.90;;;;;;5020513;28;20683;-80
2022/11/25 03:34:43;;;;;;;6.25;1.05;;;10.40;99.90;;;;;;5014719;28;20200;-81
2022/11/25 03:37:09;;;;;;;4.20;1.23;;;10.40;99.90;;;;;;5013602;28;20164;-80
2022/11/25 03:39:35;;;;;;;5.10;1.42;;;10.50;99.90;;;;;;5013908;28;20684;-82
2022/11/25 03:42:00;;;;;;;7.35;1.83;;;10.40;99.90;;;;;;5013302;28;20167;-82
2022/11/25 03:44:26;;;;;;;8.13;1.70;;;10.50;99.90;;;;;;5013262;28;20629;-83
2022/11/25 03:46:51;;;;;;;10.00;1.48;;;10.60;99.90;;;;;;5028561;28;20165;-81
2022/11/25 03:49:17;;;;;;;8.63;1.33;;;10.60;99.90;;;;;;5028779;28;20197;-78
2022/11/25 03:51:43;;;;;;;3.60;1.65;;;10.70;99.90;;;;;;5013446;28;20530;-79
2022/11/25 03:54:08;;;;;;;5.80;1.58;;;10.60;99.90;;;;;;5013307;28;20204;-80
2022/11/25 03:56:34;;;;;;;5.70;1.63;;;10.50;99.90;;;;;;5012958;28;20172;-81
2022/11/25 03:58:59;;;;;;;3.40;1.80;;;10.50;99.90;;;;;;5012866;28;20188;-79
2022/11/25 04:01:25;;;;;;;13.00;2.08;;;10.60;99.90;;;;;;5013266;28;20161;-82
2022/11/25 04:03:50;;;;;;;6.80;1.60;;;10.50;99.90;;;;;;5012937;28;20183;-81
2022/11/25 04:06:20;;;;;;;5.95;1.83;;;10.40;99.90;;;;;;5012636;28;20187;-79
2022/11/25 04:08:46;;;;;;;10.55;2.22;;;10.40;99.90;;;;;;5021738;28;20160;-78
2022/11/25 04:11:12;;;;;;;6.47;2.05;;;10.20;99.90;;;;;;5015349;28;20673;-81
2022/11/25 04:13:37;;;;;;;9.80;1.95;;;10.30;99.90;;;;;;5016296;28;20216;-81
2022/11/25 04:16:03;;;;;;;10.68;2.35;;;10.00;99.90;;;;;;5013944;28;20169;-80
2022/11/25 04:18:29;;;;;;;4.72;1.63;;;10.10;99.90;;;;;;5013599;28;20175;-82
2022/11/25 04:20:54;;;;;;;6.93;2.05;;;10.30;99.90;;;;;;5012829;28;20192;-80
2022/11/25 04:23:20;;;;;;;10.88;1.65;;;10.20;99.90;;;;;;5013550;28;20798;-79
2022/11/25 04:25:51;;;;;;;8.80;1.73;;;10.20;99.90;;;;;;5017047;28;20170;-79
2022/11/25 04:28:16;;;;;;;10.73;2.28;;;10.20;99.90;;;;;;5019426;28;20169;-79
2022/11/25 04:30:42;;;;;;;6.05;1.30;;;10.30;99.90;;;;;;5023128;28;20212;-78
2022/11/25 04:33:07;;;;;;;7.05;2.03;;;10.20;99.90;;;;;;5016759;28;20207;-84
2022/11/25 04:35:33;;;;;;;15.68;2.28;;;10.20;99.90;;;;;;5027737;28;20172;-78
2022/11/25 04:37:58;;;;;;;12.65;2.17;;;10.20;99.90;;;;;;5012625;28;20165;-82
2022/11/25 04:40:24;;;;;;;6.90;1.88;;;10.20;99.90;;;;;;5012427;28;20192;-79
2022/11/25 04:42:50;;;;;;;9.85;2.08;;;10.30;99.90;;;;;;5012525;28;20573;-84
2022/11/25 04:45:16;;;;;;;6.10;1.92;;;10.20;99.90;;;;;;5012266;28;20637;-82
2022/11/25 04:47:42;;;;;;;12.68;1.85;;;10.40;99.90;;;;;;5012199;28;20198;-81
2022/11/25 04:50:15;;;;;;;7.53;2.22;;;10.40;99.90;;;;;;5011097;28;20697;-80
2022/11/25 04:52:41;;;;;;;7.60;2.65;;;10.40;99.90;;;;;;5012257;28;20200;-83
2022/11/25 04:55:07;;;;;;;9.00;2.22;;;10.30;99.90;;;;;;5012193;28;20200;-81
2022/11/25 04:57:33;;;;;;;6.05;1.90;;;10.40;99.90;;;;;;5015239;28;20263;-84
2022/11/25 04:59:58;;;;;;;13.38;3.20;;;10.40;99.90;;;;;;5015514;28;20603;-79
2022/11/25 05:02:26;;;;;;;10.43;1.90;;;10.40;99.90;;;;;;5015694;28;20520;-84
2022/11/25 05:04:54;;;;;;;8.75;2.20;;;10.40;99.90;;;;;;5015870;28;20187;-82
2022/11/25 05:07:21;;;;;;;9.70;1.90;;;10.50;99.90;;;;;;5015773;28;20558;-81
2022/11/25 05:09:47;;;;;;;19.25;2.45;;;10.50;99.90;;;;;;5015212;28;20189;-81
2022/11/25 05:12:16;;;;;;;7.55;1.63;;;10.60;99.90;;;;;;5015447;28;20251;-79
2022/11/25 05:14:42;;;;;;;8.27;2.03;;;10.70;99.90;;;;;;5015444;28;20212;-79
2022/11/25 05:17:13;;;;;;;9.25;2.15;;;10.50;99.90;;;;;;5015570;28;20161;-79
2022/11/25 05:19:39;;;;;;;5.18;2.10;;;10.40;99.90;;;;;;5015465;28;20304;-81
2022/11/25 05:22:04;;;;;;;8.52;2.10;;;10.50;99.90;;;;;;5015679;28;20243;-82
2022/11/25 05:24:30;;;;;;;5.75;2.15;;;10.40;99.90;;;;;;5014807;28;20184;-78
2022/11/25 05:26:55;;;;;;;8.23;2.03;;;10.40;99.90;;;;;;5014927;28;20628;-79
2022/11/25 05:29:21;;;;;;;9.68;2.03;;;10.40;99.90;;;;;;5013736;28;20718;-79
2022/11/25 05:32:11;;;;;;;6.32;1.92;;;10.30;99.90;;;;;;5014853;28;20282;-79
2022/11/25 05:34:39;;;;;;;3.42;1.42;;;10.30;99.90;;;;;;5013064;28;20227;-78
2022/11/25 05:37:06;;;;;;;6.68;1.30;;;10.40;99.90;;;;;;5015060;28;20164;-78
2022/11/25 05:39:31;;;;;;;8.38;2.30;;;10.10;99.90;;;;;;5015079;28;20250;-78
2022/11/25 05:41:57;;;;;;;7.50;1.77;;;9.90;99.90;;;;;;5014832;28;20621;-78
2022/11/25 05:44:23;;;;;;;7.07;1.75;;;10.00;99.90;;;;;;5014870;28;20179;-79
2022/11/25 05:46:49;;;;;;;9.75;2.10;;;9.90;99.90;;;;;;5014641;28;20625;-78
2022/11/25 05:49:21;;;;;;;3.10;1.70;;;9.80;99.90;;;;;;5005470;28;20288;-78
2022/11/25 05:52:31;;;;;;;8.82;1.50;;;9.80;99.90;;;;;;4992420;28;20590;-78
2022/11/25 05:54:56;;;;;;;10.43;2.63;;;9.90;99.90;;;;;;4985482;28;20225;-78
2022/11/25 05:57:22;;;;;;;6.20;1.90;;;9.90;99.90;;;;;;4994525;28;20689;-77
2022/11/25 05:59:47;;;;;;;9.77;2.88;;;9.80;99.90;;;;;;4994458;28;20195;-78
2022/11/25 06:02:13;;;;;;;7.65;1.73;;;9.80;99.90;;;;;;4994714;28;20232;-78
2022/11/25 06:04:38;;;;;;;4.20;1.70;;;9.80;99.90;;;;;;4994971;28;20166;-78
2022/11/25 06:07:04;;;;;;;9.88;2.28;;;9.80;99.90;;;;;;4994742;28;20173;-78
2022/11/25 06:09:30;;;;;;;9.32;2.60;;;9.80;99.90;;;;;;4994267;28;20276;-78
2022/11/25 06:11:56;;;;;;;8.60;1.80;;;9.80;99.90;;;;;;4993289;28;20208;-79
2022/11/25 06:14:21;;;;;;;5.60;1.77;;;9.60;99.90;;;;;;4994490;28;20275;-78
2022/11/25 06:16:47;;;;;;;7.53;2.03;;;9.70;99.90;;;;;;4994573;28;20174;-78
2022/11/25 06:19:12;;;;;;;5.80;1.55;;;9.70;99.90;;;;;;4994344;28;20215;-79
2022/11/25 06:21:38;;;;;;;4.10;2.20;;;9.70;99.90;;;;;;4994142;28;20618;-78
2022/11/25 06:24:05;;;;;;;10.00;2.13;;;9.80;99.90;;;;;;4994502;28;20196;-78
2022/11/25 06:26:31;;;;;;;8.63;1.70;;;9.90;99.90;;;;;;4994277;28;20176;-78
2022/11/25 06:28:56;;;;;;;9.10;2.30;;;9.80;99.90;;;;;;4993831;28;20536;-78
2022/11/25 06:31:24;;;;;;;6.28;1.73;;;9.80;99.90;;;;;;5008607;28;20162;-79
2022/11/25 06:33:51;;;;;;;6.18;1.88;;;9.80;99.90;;;;;;4993791;28;20308;-78
2022/11/25 06:36:18;;;;;;;13.93;2.17;;;9.70;99.90;;;;;;4993857;28;20571;-79
2022/11/25 06:38:53;;;;;;;10.93;1.40;;;9.80;99.90;;;;;;4993953;28;20169;-79
2022/11/25 06:41:20;;;;;;;4.28;1.83;;;9.80;99.90;;;;;;4994702;28;20177;-79
2022/11/25 06:43:46;;;;;;;11.63;2.03;;;9.90;99.90;;;;;;4994120;28;20181;-79
2022/11/25 06:46:16;;;;;;;8.57;2.30;;;9.90;99.90;;;;;;5008953;28;20173;-77
2022/11/25 06:48:42;;;;;;;10.85;1.58;;;9.90;99.90;;;;;;4993838;28;20179;-78
2022/11/25 06:51:10;;;;;;;11.27;2.35;;;9.80;99.90;;;;;;4993353;28;20169;-79
2022/11/25 06:53:37;;;;;;;4.93;1.67;;;9.80;99.90;;;;;;4993721;28;20773;-79
2022/11/25 06:56:06;;;;;;;10.05;3.13;;;9.70;99.90;;;;;;4993613;28;20209;-79
2022/11/25 06:58:32;;;;;;;8.73;2.28;;;9.80;99.90;;;;;;4994231;28;20189;-78
2022/11/25 07:01:09;;;;;;;4.55;1.70;;;9.60;99.90;;;;;;5000387;28;20733;-80
2022/11/25 07:03:35;;;;;;;5.00;1.85;;;9.50;99.90;;;;;;5014077;28;20177;-78
2022/11/25 07:06:01;;;;;;;7.90;1.92;;;9.60;99.90;;;;;;5007300;28;20172;-78
2022/11/25 07:08:27;;;;;;;8.35;1.98;;;9.60;99.90;;;;;;4994346;28;20215;-78
2022/11/25 07:10:52;;;;;;;9.75;2.83;;;9.50;99.90;;;;;;4993468;28;20532;-78
2022/11/25 07:13:19;;;;;;;3.17;1.80;;;9.40;99.90;;;;;;4993797;28;20199;-78
2022/11/25 07:15:45;;;;;;;13.05;2.80;;;9.30;99.90;;;;;;4993621;28;20187;-78
2022/11/25 07:18:11;;;;;;;9.02;1.98;;;9.40;99.90;;;;;;4993417;28;20566;-78
2022/11/25 07:20:37;;;;;;;15.15;2.40;;;9.50;99.90;;;;;;4992870;28;20192;-78
2022/11/25 07:23:03;;;;;;;9.75;3.05;;;9.50;99.90;;;;;;4992114;28;20161;-78
2022/11/25 07:25:29;;;;;;;9.00;2.25;;;9.40;99.90;;;;;;4993399;28;20173;-78
2022/11/25 07:27:54;;;;;;;8.68;2.00;;;9.40;99.90;;;;;;4993335;28;20162;-78
2022/11/25 07:30:20;;;;;;;14.45;2.80;;;9.50;99.90;;;;;;4993019;28;20676;-78
2022/11/25 07:32:45;;;;;;;26.20;3.05;;;9.50;99.90;;;;;;4992106;28;20164;-80
2022/11/25 07:35:11;;;;;;;17.85;2.45;;;9.50;99.90;;;;;;4992511;28;20162;-83
2022/11/25 07:37:37;;;;;;;16.92;3.00;;;9.40;99.90;;;;;;4991767;28;20195;-80
2022/11/25 07:40:03;;;;;;;17.52;3.20;;;9.30;99.90;;;;;;4992559;28;20744;-79
2022/11/25 07:42:29;;;;;;;14.20;3.35;;;9.30;99.90;;;;;;4992869;28;20165;-78
2022/11/25 07:44:54;;;;;;;15.05;5.32;;;9.30;99.90;;;;;;5007732;28;20592;-78
2022/11/25 07:47:20;;;;;;;16.65;4.22;;;9.20;99.90;;;;;;4992975;28;20203;-78
2022/11/25 07:49:45;;;;;;;12.68;4.75;;;9.30;99.90;;;;;;4992366;28;20267;-78
2022/11/25 07:52:11;;;;;;;20.85;5.90;;;9.30;99.90;;;;;;4992792;28;20179;-82
2022/11/25 07:54:36;;;;;;;16.13;4.03;;;9.40;99.90;;;;;;4992776;28;20212;-80
2022/11/25 07:57:02;;;;;;;16.08;3.92;;;9.50;99.90;;;;;;5008182;28;20233;-79
2022/11/25 07:59:28;;;;;;;11.15;2.78;;;9.40;99.90;;;;;;4992603;28;20185;-78
2022/11/25 08:01:55;;;;;;;10.73;3.28;;;9.30;99.90;;;;;;4993191;28;20197;-80
2022/11/25 08:04:21;;;;;;;17.25;3.08;;;9.40;99.90;;;;;;4993112;28;20200;-81
2022/11/25 08:06:50;;;;;;;16.30;4.18;;;9.50;99.90;;;;;;4992906;28;20179;-83
2022/11/25 08:09:19;;;;;;;13.30;3.33;;;9.60;99.90;;;;;;4993025;28;20216;-79
2022/11/25 08:11:46;;;;;;;9.40;3.00;;;9.60;99.90;;;;;;4991634;28;20189;-81
2022/11/25 08:14:12;;;;;;;11.85;2.78;;;9.70;99.90;;;;;;4992480;28;20236;-79
2022/11/25 08:16:38;;;;;;;12.73;2.67;;;9.60;99.90;;;;;;4991389;28;20169;-78
2022/11/25 08:19:05;;;;;;;18.75;2.80;;;9.80;99.90;;;;;;4992579;28;20209;-78
2022/11/25 08:21:31;;;;;;;14.50;3.15;;;9.80;99.90;;;;;;4992671;28;20162;-78
2022/11/25 08:23:57;;;;;;;10.70;3.00;;;9.90;99.90;;;;;;4992375;28;20171;-78
2022/11/25 08:26:29;;;;;;;13.23;3.40;;;10.10;99.90;;;;;;4993209;28;20169;-79
2022/11/25 08:28:56;;;;;;;11.15;2.88;;;10.20;99.90;;;;;;4997569;28;20220;-78
2022/11/25 08:31:25;;;;;;;17.85;2.97;;;10.30;99.90;;;;;;4996983;28;20192;-81
2022/11/25 08:33:51;;;;;;;11.68;3.85;;;10.30;99.90;;;;;;4999508;28;20207;-78
2022/11/25 08:36:18;;;;;;;14.40;3.17;;;10.40;99.90;;;;;;4996663;28;20165;-82
2022/11/25 08:38:46;;;;;;;16.73;4.38;;;10.30;99.90;;;;;;4996453;28;20197;-81
2022/11/25 08:41:18;;;;;;;13.05;4.15;;;10.40;99.90;;;;;;4996965;28;20157;-79
2022/11/25 08:43:44;;;;;;;12.75;3.47;;;10.10;99.90;;;;;;4997098;28;20309;-82
2022/11/25 08:46:13;;;;;;;15.68;3.25;;;10.10;99.90;;;;;;4996637;28;20514;-78
2022/11/25 08:48:39;;;;;;;20.23;3.50;;;10.10;99.90;;;;;;4997990;28;20161;-79
2022/11/25 08:51:17;;;;;;;18.05;3.25;;;10.10;99.90;;;;;;4996297;28;20185;-79
2022/11/25 08:53:44;;;;;;;9.52;3.20;;;10.10;99.90;;;;;;4996149;28;20279;-79
2022/11/25 08:56:10;;;;;;;7.13;2.80;;;10.10;99.90;;;;;;4996047;28;20645;-79
2022/11/25 08:58:36;;;;;;;7.85;3.58;;;9.90;99.90;;;;;;4996674;28;20649;-81
2022/11/25 09:01:04;;;;;;;10.73;3.28;;;9.90;99.90;;;;;;5020560;23;20247;-78
2022/11/25 09:03:36;;;;;;;13.75;2.80;;;10.00;99.90;;;;;;4997421;28;20177;-78
2022/11/25 09:06:03;;;;;;;11.57;3.20;;;10.00;99.90;;;;;;5015060;28;20234;-78
2022/11/25 09:08:30;;;;;;;10.75;3.03;;;10.00;99.90;;;;;;5014999;28;20172;-78
2022/11/25 09:10:56;;;;;;;10.43;3.22;;;10.00;99.90;;;;;;5014834;28;20250;-78
2022/11/25 09:13:21;;;;;;;26.38;5.93;;;10.00;99.90;;;;;;5014871;28;20266;-78
2022/11/25 09:15:47;;;;;;;5.88;2.78;;;10.10;99.90;;;;;;5014475;28;20221;-76
2022/11/25 09:18:14;;;;;;;10.00;2.70;;;10.00;99.90;;;;;;5014962;28;20171;-77
2022/11/25 09:20:40;;;;;;;9.07;2.83;;;9.90;99.90;;;;;;5015341;28;20191;-77
2022/11/25 09:23:07;;;;;;;7.95;1.90;;;9.90;99.90;;;;;;5015264;28;20172;-81
2022/11/25 09:25:33;;;;;;;9.85;2.42;;;9.90;99.90;;;;;;5015056;28;20160;-78
2022/11/25 09:27:59;;;;;;;8.50;2.33;;;9.90;99.90;;;;;;4996940;28;20195;-79
2022/11/25 09:30:25;;;;;;;9.00;2.70;;;10.00;99.90;;;;;;5012402;28;20700;-78
2022/11/25 09:32:53;;;;;;;11.07;2.50;;;10.10;99.90;;;;;;5014185;28;20164;-78
2022/11/25 09:35:19;;;;;;;9.63;2.28;;;10.00;99.90;;;;;;4996997;28;20573;-78
2022/11/25 09:37:45;;;;;;;5.90;2.35;;;10.10;99.90;;;;;;5014606;28;20575;-79
2022/11/25 09:40:19;;;;;;;8.15;2.75;;;10.10;99.90;;;;;;5014468;28;20275;-78
2022/11/25 09:49:06;;;;;;;7.97;3.45;;;10.60;99.90;;;;;;5014698;28;20234;-80
2022/11/25 09:51:45;;;;;;;13.80;3.78;;;10.70;99.90;;;;;;4996394;28;20179;-78
2022/11/25 09:54:22;;;;;;;6.15;2.70;;;10.60;99.90;;;;;;5014490;28;20200;-77
2022/11/25 09:56:52;;;;;;;14.13;2.65;;;10.70;99.90;;;;;;5014556;28;20287;-78
2022/11/25 09:59:41;;;;;;;11.10;3.03;;;10.70;99.90;;;;;;5013894;28;20386;-77
2022/11/25 10:02:20;;;;;;;10.43;3.17;;;10.50;99.90;;;;;;5013584;28;20363;-76
2022/11/25 10:05:00;;;;;;;3.72;2.25;;;10.30;99.90;;;;;;5014416;28;20247;-87
2022/11/25 10:07:34;;;;;;;13.60;3.10;;;10.40;99.90;;;;;;5015739;28;20175;-84
2022/11/25 10:10:03;;;;;;;6.80;2.70;;;10.40;99.90;;;;;;5018425;28;20212;-81
2022/11/25 10:12:33;;;;;;;9.02;2.97;;;10.50;99.90;;;;;;5015294;28;20160;-90
2022/11/25 10:15:03;;;;;;;7.70;2.25;;;10.50;99.90;;;;;;4998070;28;20222;-90
2022/11/25 10:17:48;;;;;;;6.50;2.97;;;10.50;99.90;;;;;;4997841;28;20169;-89
2022/11/25 10:20:16;;;;;;;9.57;2.78;;;10.60;99.90;;;;;;4997750;28;20199;-90
2022/11/25 10:22:52;;;;;;;10.45;2.15;;;10.60;99.90;;;;;;4997593;28;20259;-90
2022/11/25 10:25:21;;;;;;;10.52;2.38;;;10.70;99.90;;;;;;5014933;28;20180;-89
2022/11/25 10:28:17;;;;;;;7.72;1.83;;;10.70;99.90;;;;;;4997947;28;20165;-88
2022/11/25 10:30:59;;;;;;;7.70;1.73;;;10.70;99.90;;;;;;5014020;28;20200;-84
2022/11/25 10:33:27;;;;;;;6.65;2.50;;;10.60;99.90;;;;;;4998373;28;20286;-91
2022/11/25 10:36:00;;;;;;;8.50;3.08;;;10.70;99.90;;;;;;4997409;28;20172;-90
2022/11/25 10:38:34;;;;;;;10.90;2.72;;;10.70;99.90;;;;;;5015501;28;20160;-91
2022/11/25 10:41:02;;;;;;;6.47;2.05;;;10.90;99.90;;;;;;5014815;28;20225;-91
2022/11/25 10:43:28;;;;;;;9.48;2.25;;;11.00;99.90;;;;;;5015118;28;20643;-90
2022/11/25 10:46:09;;;;;;;6.38;1.80;;;11.00;99.90;;;;;;4997363;28;20177;-89
2022/11/25 10:48:40;;;;;;;6.43;2.30;;;11.10;99.90;;;;;;4997141;28;20199;-87
2022/11/25 10:51:20;;;;;;;8.63;2.47;;;11.20;99.90;;;;;;5015081;28;20228;-91
2022/11/25 10:54:08;;;;;;;6.28;2.05;;;11.10;99.90;;;;;;5015103;28;20262;-88
2022/11/25 10:56:55;;;;;;;16.08;3.15;;;11.10;99.90;;;;;;5013310;28;20176;-78
2022/11/25 10:59:30;;;;;;;7.57;1.88;;;11.20;99.90;;;;;;5013139;28;20211;-80
2022/11/25 11:02:19;;;;;;;7.10;2.70;;;11.10;99.90;;;;;;5014292;28;20187;-87
2022/11/25 11:04:55;;;;;;;10.68;2.70;;;11.20;99.90;;;;;;5016106;28;20196;-88
2022/11/25 11:07:22;;;;;;;8.68;2.75;;;11.20;99.90;;;;;;5013565;28;20225;-81
2022/11/25 11:09:48;;;;;;;12.63;1.95;;;11.10;99.90;;;;;;5014085;28;20188;-90
2022/11/25 11:12:23;;;;;;;7.85;2.83;;;11.20;99.90;;;;;;5012920;28;20555;-76
2022/11/25 11:14:49;;;;;;;11.23;2.95;;;11.10;99.90;;;;;;5012641;28;20353;-76
2022/11/25 11:17:30;;;;;;;9.70;2.38;;;11.00;99.90;;;;;;5013048;28;20180;-78
2022/11/25 11:20:05;;;;;;;7.07;2.63;;;11.10;99.90;;;;;;5012200;28;20287;-84
2022/11/25 11:22:33;;;;;;;5.57;2.00;;;11.10;99.90;;;;;;5012596;28;20164;-77
2022/11/25 11:25:20;;;;;;;9.63;2.67;;;11.10;99.90;;;;;;5012988;28;20172;-79
2022/11/25 11:27:47;;;;;;;5.97;2.03;;;11.40;99.90;;;;;;5012011;28;20160;-77
2022/11/25 11:30:22;;;;;;;9.75;2.30;;;11.30;99.90;;;;;;4994999;28;20276;-77
2022/11/25 11:33:04;;;;;;;20.40;3.53;;;11.30;99.90;;;;;;4994908;28;20168;-78
2022/11/25 11:35:32;;;;;;;7.75;2.13;;;11.30;99.90;;;;;;5012455;28;20660;-77
2022/11/25 11:38:06;;;;;;;7.68;2.35;;;11.20;99.90;;;;;;5012987;28;20652;-82
2022/11/25 11:40:38;;;;;;;5.95;2.10;;;11.30;99.90;;;;;;5012204;28;20729;-81
2022/11/25 11:43:23;;;;;;;5.78;1.80;;;11.40;99.90;;;;;;5012534;28;20247;-77
2022/11/25 11:46:16;;;;;;;4.38;1.95;;;11.40;99.90;;;;;;5013611;28;20184;-77
2022/11/25 11:48:41;;;;;;;20.45;2.85;;;11.40;99.90;;;;;;5012192;28;20652;-76
2022/11/25 11:51:41;;;;;;;15.25;3.28;;;11.40;99.90;;;;;;5012384;28;20172;-77
2022/11/25 11:54:20;;;;;;;7.32;2.25;;;11.50;99.90;;;;;;5012400;28;20212;-77
2022/11/25 11:56:55;;;;;;;10.90;2.90;;;11.50;99.90;;;;;;5012485;28;20176;-77
2022/11/25 11:59:36;;;;;;;10.02;2.50;;;11.60;99.90;;;;;;5012365;28;20192;-77
2022/11/25 12:02:31;;;;;;;25.50;3.90;;;11.70;99.90;;;;;;5012311;28;20198;-77
2022/11/25 12:05:08;;;;;;;11.52;3.58;;;11.70;99.90;;;;;;5012797;28;20176;-77
2022/11/25 12:07:52;;;;;;;9.32;2.63;;;11.70;99.90;;;;;;5016655;28;20200;-78
2022/11/25 12:10:44;;;;;;;12.45;3.88;;;11.60;99.90;;;;;;5017192;28;20246;-77
2022/11/25 12:13:34;;;;;;;10.90;2.28;;;11.80;99.90;;;;;;5001730;28;20164;-77
2022/11/25 12:16:22;;;;;;;25.58;3.22;;;11.70;99.90;;;;;;5018843;28;20657;-77
2022/11/25 12:19:11;;;;;;;11.60;2.63;;;11.70;99.90;;;;;;5016196;28;20176;-77
2022/11/25 12:22:06;;;;;;;8.80;2.53;;;11.60;99.90;;;;;;5016041;28;20180;-77
2022/11/25 12:24:55;;;;;;;12.45;2.50;;;11.60;99.90;;;;;;5015688;28;20764;-77
2022/11/25 12:27:44;;;;;;;10.98;3.00;;;11.70;99.90;;;;;;5015558;28;20165;-77
2022/11/25 12:30:16;;;;;;;13.57;2.80;;;11.60;99.90;;;;;;4990452;28;20250;-81
2022/11/25 12:33:03;;;;;;;7.10;2.90;;;11.60;99.90;;;;;;5015773;28;20157;-77
2022/11/25 12:35:57;;;;;;;18.73;2.80;;;11.70;99.90;;;;;;5015178;28;20208;-83
2022/11/25 12:38:42;;;;;;;9.20;2.58;;;11.60;99.90;;;;;;5015782;28;20175;-78
2022/11/25 12:41:18;;;;;;;14.77;3.00;;;11.60;99.90;;;;;;5015084;28;20190;-79
2022/11/25 12:43:43;;;;;;;13.35;2.78;;;11.60;99.90;;;;;;5015404;28;20195;-78
2022/11/25 12:46:29;;;;;;;9.40;2.15;;;11.60;99.90;;;;;;5015376;28;20164;-81
2022/11/25 12:48:57;;;;;;;12.43;2.72;;;11.70;99.90;;;;;;5014780;28;20183;-77
2022/11/25 12:51:50;;;;;;;13.93;2.42;;;11.60;99.90;;;;;;5014604;28;20223;-78
2022/11/25 12:54:25;;;;;;;10.02;2.92;;;11.50;99.90;;;;;;4997862;28;20222;-78
2022/11/25 12:57:02;;;;;;;14.60;3.42;;;11.60;99.90;;;;;;4997666;28;20643;-78
2022/11/25 12:59:52;;;;;;;12.20;2.72;;;11.70;99.90;;;;;;5014912;28;20279;-77
2022/11/25 13:02:49;;;;;;;14.60;4.13;;;11.60;99.90;;;;;;5014609;28;20180;-77
2022/11/25 13:05:17;;;;;;;8.43;1.83;;;11.80;99.90;;;;;;5014820;28;20175;-77
2022/11/25 13:07:58;;;;;;;16.75;3.03;;;11.80;99.90;;;;;;4997901;28;20188;-77
2022/11/25 13:10:49;;;;;;;8.80;2.85;;;12.00;99.90;;;;;;5014871;28;20527;-77